Time;durP1;ratioP1;P1;durP2;ratioP2;P2;SDS_P1;SDS_P2;PMS_P1;PMS_P2;Temp;Humidity;BMP_temperature;BMP_pressure;BME280_temperature;BME280_humidity;BME280_pressure;Samples;Min_cycle;Max_cycle;Signal;HPM_P1;HPM_P2
2022/01/22 00:19:58;;;;;;;2.00;1.90;;;;;;;;;;4513519;28;20151;-64
2022/01/22 00:22:28;;;;;;;2.80;2.10;;;;;;;;;;4196956;34;20093;-67
2022/01/22 00:24:57;;;;;;;2.37;1.95;;;;;;;;;;4177307;34;20125;-73
2022/01/22 00:27:25;;;;;;;3.10;2.00;;;;;;;;;;4190412;34;20212;-73
2022/01/22 00:29:51;;;;;;;4.15;2.35;;;;;;;;;;4190002;34;20110;-66
2022/01/22 00:32:17;;;;;;;3.22;2.60;;;;;;;;;;4190454;34;20524;-67
2022/01/22 00:34:43;;;;;;;2.95;2.15;;;;;;;;;;4190178;34;20215;-71
2022/01/22 00:37:10;;;;;;;2.47;2.25;;;;;;;;;;4177232;34;20098;-71
2022/01/22 00:39:36;;;;;;;4.40;2.20;;;;;;;;;;4177500;34;20450;-73
2022/01/22 00:42:08;;;;;;;4.50;2.83;;;;;;;;;;4191180;34;20150;-73
2022/01/22 00:44:34;;;;;;;2.83;2.20;;;;;;;;;;4177792;34;20530;-73
2022/01/22 00:47:02;;;;;;;2.55;2.30;;;;;;;;;;4190391;34;20145;-73
2022/01/22 00:49:29;;;;;;;4.43;2.55;;;;;;;;;;4190215;34;20190;-72
2022/01/22 00:51:56;;;;;;;3.35;2.42;;;;;;;;;;4177501;34;20103;-72
2022/01/22 00:54:22;;;;;;;2.65;2.08;;;;;;;;;;4189877;34;20530;-69
2022/01/22 00:56:48;;;;;;;2.85;2.20;;;;;;;;;;4190191;34;20155;-70
2022/01/22 00:59:14;;;;;;;3.30;2.60;;;;;;;;;;4190123;34;20518;-66
2022/01/22 01:01:40;;;;;;;4.10;2.25;;;;;;;;;;4190188;34;20446;-64
2022/01/22 01:04:09;;;;;;;2.87;2.15;;;;;;;;;;4190321;34;20102;-64
2022/01/22 01:06:35;;;;;;;3.83;2.70;;;;;;;;;;4190345;34;20117;-64
2022/01/22 01:09:04;;;;;;;2.92;2.22;;;;;;;;;;4189316;34;20106;-65
2022/01/22 01:11:32;;;;;;;4.03;2.78;;;;;;;;;;4190103;34;20482;-66
2022/01/22 01:14:01;;;;;;;3.47;2.87;;;;;;;;;;4190184;34;20523;-65
2022/01/22 01:35:16;;;;;;;3.65;2.72;;;;;;;;;;4190037;34;20282;-65
2022/01/22 01:37:42;;;;;;;5.53;2.72;;;;;;;;;;4190026;34;20098;-65
2022/01/22 01:40:10;;;;;;;4.55;2.95;;;;;;;;;;4189936;34;20223;-65
2022/01/22 01:43:02;;;;;;;3.62;2.85;;;;;;;;;;4189914;34;20623;-66
2022/01/22 01:45:28;;;;;;;3.55;3.15;;;;;;;;;;4189609;34;20130;-64
2022/01/22 01:48:01;;;;;;;5.03;2.90;;;;;;;;;;4189261;34;20537;-64
2022/01/22 01:50:30;;;;;;;3.62;2.83;;;;;;;;;;4189632;34;20171;-64
2022/01/22 01:58:28;;;;;;;5.75;2.97;;;;;;;;;;4189833;34;20106;-62
2022/01/22 02:00:55;;;;;;;4.80;3.33;;;;;;;;;;4189651;34;20510;-66
2022/01/22 02:03:22;;;;;;;4.53;3.30;;;;;;;;;;4189733;34;20225;-66
2022/01/22 02:05:48;;;;;;;3.17;2.87;;;;;;;;;;4189927;34;20592;-66
2022/01/22 02:08:15;;;;;;;3.58;3.10;;;;;;;;;;4189662;34;20144;-66
2022/01/22 02:10:47;;;;;;;3.60;3.03;;;;;;;;;;4189582;34;20100;-66
2022/01/22 02:24:16;;;;;;;3.58;2.97;;;;;;;;;;4178876;34;20495;-64
2022/01/22 02:26:49;;;;;;;3.42;3.10;;;;;;;;;;4189379;34;20260;-64
2022/01/22 02:29:15;;;;;;;4.00;3.40;;;;;;;;;;4189525;34;20128;-65
2022/01/22 02:31:53;;;;;;;3.62;3.25;;;;;;;;;;4189377;34;20171;-66
2022/01/22 02:34:36;;;;;;;4.90;3.20;;;;;;;;;;4189488;34;20145;-64
2022/01/22 02:37:10;;;;;;;3.42;3.12;;;;;;;;;;4176690;34;20125;-64
2022/01/22 02:39:41;;;;;;;4.95;3.00;;;;;;;;;;4189456;34;20120;-66
2022/01/22 02:42:07;;;;;;;4.30;3.47;;;;;;;;;;4176548;34;20110;-66
2022/01/22 02:44:36;;;;;;;3.90;3.40;;;;;;;;;;4176346;34;20209;-65
2022/01/22 02:47:06;;;;;;;3.78;3.40;;;;;;;;;;4176326;34;20109;-66
2022/01/22 02:49:32;;;;;;;3.90;3.30;;;;;;;;;;4189106;34;20549;-67
2022/01/22 02:52:03;;;;;;;4.53;3.40;;;;;;;;;;4189043;34;20186;-66
2022/01/22 02:54:30;;;;;;;4.82;3.87;;;;;;;;;;4189073;34;20113;-66
2022/01/22 02:56:56;;;;;;;4.85;3.50;;;;;;;;;;4189034;34;20534;-66
2022/01/22 02:59:23;;;;;;;4.05;3.58;;;;;;;;;;4188949;34;20120;-66
2022/01/22 03:01:50;;;;;;;5.43;3.33;;;;;;;;;;4179302;34;20201;-66
2022/01/22 03:04:17;;;;;;;3.87;3.28;;;;;;;;;;4178793;34;20534;-66
2022/01/22 03:06:43;;;;;;;4.30;3.90;;;;;;;;;;4190959;34;20532;-64
2022/01/22 03:09:12;;;;;;;4.15;3.72;;;;;;;;;;4178220;34;20205;-64
2022/01/22 03:12:13;;;;;;;3.72;3.37;;;;;;;;;;4190878;34;20094;-65
2022/01/22 03:27:31;;;;;;;4.05;3.35;;;;;;;;;;4191128;34;20181;-65
2022/01/22 03:29:58;;;;;;;3.90;3.50;;;;;;;;;;4191509;34;20214;-65
2022/01/22 03:32:28;;;;;;;3.95;3.55;;;;;;;;;;4190803;34;20094;-65
2022/01/22 03:35:25;;;;;;;3.92;3.53;;;;;;;;;;4178038;34;20102;-64
2022/01/22 03:37:43;;;;;;;4.28;3.85;;;;;;;;;;4189969;34;20186;-65
2022/01/22 03:40:12;;;;;;;5.50;3.92;;;;;;;;;;4190793;34;20122;-65
2022/01/22 03:42:39;;;;;;;4.53;4.00;;;;;;;;;;4190764;34;20538;-65
2022/01/22 03:45:08;;;;;;;4.10;3.65;;;;;;;;;;4177852;34;20129;-65
2022/01/22 03:47:35;;;;;;;4.72;3.85;;;;;;;;;;4190566;34;20118;-65
2022/01/22 03:50:02;;;;;;;4.35;3.95;;;;;;;;;;4190743;34;20118;-64
2022/01/22 03:52:28;;;;;;;4.20;3.42;;;;;;;;;;4178075;34;20265;-64
2022/01/22 03:54:54;;;;;;;4.40;4.00;;;;;;;;;;4191012;34;20106;-64
2022/01/22 03:57:22;;;;;;;6.53;3.85;;;;;;;;;;4191045;34;20090;-65
2022/01/22 03:59:50;;;;;;;6.15;4.10;;;;;;;;;;4190517;34;20151;-64
2022/01/22 04:05:03;;;;;;;4.80;4.07;;;;;;;;;;4190834;34;20147;-64
2022/01/22 04:10:18;;;;;;;5.37;4.30;;;;;;;;;;4190577;34;20207;-64
2022/01/22 04:12:51;;;;;;;5.15;4.37;;;;;;;;;;4177907;34;20097;-64
2022/01/22 04:15:21;;;;;;;5.35;4.30;;;;;;;;;;4178123;34;20110;-64
2022/01/22 04:26:29;;;;;;;7.57;4.65;;;;;;;;;;4175518;34;20106;-64
2022/01/22 04:28:56;;;;;;;6.12;4.65;;;;;;;;;;4175569;34;20439;-64
2022/01/22 04:31:23;;;;;;;5.32;4.82;;;;;;;;;;4175431;34;20106;-65
2022/01/22 04:33:49;;;;;;;5.28;4.60;;;;;;;;;;4175300;34;20148;-65
2022/01/22 04:36:15;;;;;;;4.50;3.97;;;;;;;;;;4175450;34;20106;-64
2022/01/22 04:38:41;;;;;;;6.60;4.47;;;;;;;;;;4175571;34;20218;-63
2022/01/22 04:41:07;;;;;;;4.87;4.20;;;;;;;;;;4162838;34;20107;-62
2022/01/22 04:43:36;;;;;;;5.12;4.50;;;;;;;;;;4151766;34;20198;-65
2022/01/22 04:49:10;;;;;;;5.43;4.62;;;;;;;;;;4149096;34;20115;-64
2022/01/22 04:57:05;;;;;;;5.05;4.20;;;;;;;;;;4175238;34;20102;-64
2022/01/22 04:59:31;;;;;;;5.47;4.60;;;;;;;;;;4175125;34;20102;-65
2022/01/22 05:01:58;;;;;;;6.62;4.57;;;;;;;;;;4175184;34;20197;-63
2022/01/22 05:04:24;;;;;;;6.65;5.40;;;;;;;;;;4176190;34;20195;-65
2022/01/22 05:06:50;;;;;;;6.57;4.65;;;;;;;;;;4176428;34;20114;-65
2022/01/22 05:09:16;;;;;;;4.78;4.32;;;;;;;;;;4176610;34;20110;-65
2022/01/22 05:11:42;;;;;;;4.82;4.30;;;;;;;;;;4163643;34;20553;-65
2022/01/22 05:14:08;;;;;;;5.32;4.57;;;;;;;;;;4176406;34;20447;-65
2022/01/22 05:16:34;;;;;;;6.57;4.50;;;;;;;;;;4176152;34;20129;-65
2022/01/22 05:19:11;;;;;;;5.43;4.72;;;;;;;;;;4163572;34;20121;-65
2022/01/22 05:21:39;;;;;;;6.60;4.15;;;;;;;;;;4176200;34;20513;-65
2022/01/22 05:24:10;;;;;;;5.78;4.32;;;;;;;;;;4175388;34;20122;-65
2022/01/22 05:39:43;;;;;;;5.05;4.47;;;;;;;;;;4152690;34;20197;-65
2022/01/22 05:42:09;;;;;;;9.38;4.82;;;;;;;;;;4176887;34;20507;-65
2022/01/22 05:44:36;;;;;;;5.93;4.50;;;;;;;;;;4176965;34;20122;-65
2022/01/22 05:47:05;;;;;;;7.50;6.03;;;;;;;;;;4176763;34;20111;-65
2022/01/22 05:49:36;;;;;;;5.07;4.30;;;;;;;;;;4176952;34;20102;-63
2022/01/22 05:52:04;;;;;;;6.03;4.57;;;;;;;;;;4176595;34;20617;-67
2022/01/22 05:54:54;;;;;;;5.37;4.87;;;;;;;;;;4176731;34;20197;-68
2022/01/22 06:00:09;;;;;;;7.18;4.47;;;;;;;;;;4190276;34;20121;-65
2022/01/22 06:08:54;;;;;;;6.35;4.68;;;;;;;;;;4621616;28;20136;-71
2022/01/22 06:12:58;;;;;;;6.40;5.03;;;;;;;;;;4187220;34;20129;-74
2022/01/22 06:16:03;;;;;;;5.57;5.03;;;;;;;;;;4167523;33;20461;-70
2022/01/22 06:21:09;;;;;;;4.93;4.43;;;;;;;;;;4208159;34;20129;-76
2022/01/22 06:23:36;;;;;;;8.27;7.00;;;;;;;;;;4216024;34;20195;-70
2022/01/22 06:26:03;;;;;;;6.07;4.78;;;;;;;;;;4204113;34;20586;-70
2022/01/22 06:28:29;;;;;;;5.18;4.07;;;;;;;;;;4196311;34;20454;-69
2022/01/22 06:30:58;;;;;;;5.70;3.97;;;;;;;;;;4217831;34;20146;-65
2022/01/22 06:33:24;;;;;;;4.70;4.18;;;;;;;;;;4215816;34;20100;-66
2022/01/22 06:35:51;;;;;;;4.72;4.30;;;;;;;;;;4211905;34;20180;-67
2022/01/22 06:38:17;;;;;;;4.72;4.32;;;;;;;;;;4218920;33;20450;-66
2022/01/22 06:43:29;;;;;;;5.10;4.60;;;;;;;;;;4220016;34;20089;-68
2022/01/22 06:45:55;;;;;;;5.20;4.00;;;;;;;;;;4219961;34;20188;-70
2022/01/22 06:48:21;;;;;;;5.95;4.20;;;;;;;;;;4219837;34;20116;-67
2022/01/22 06:50:48;;;;;;;5.40;4.87;;;;;;;;;;4219843;34;20179;-69
2022/01/22 06:53:14;;;;;;;4.75;4.30;;;;;;;;;;4219435;34;20404;-73
2022/01/22 06:55:44;;;;;;;4.40;3.97;;;;;;;;;;4205929;34;20126;-74
2022/01/22 06:58:11;;;;;;;5.37;4.87;;;;;;;;;;4193236;34;20504;-71
2022/01/22 07:00:37;;;;;;;8.48;6.05;;;;;;;;;;4205796;34;20533;-69
2022/01/22 07:03:03;;;;;;;7.55;5.00;;;;;;;;;;4205767;34;20110;-73
2022/01/22 07:05:30;;;;;;;6.07;5.05;;;;;;;;;;4193092;34;20137;-74
2022/01/22 07:07:56;;;;;;;5.22;4.57;;;;;;;;;;4205786;34;20128;-75
2022/01/22 07:10:22;;;;;;;5.72;4.15;;;;;;;;;;4192920;34;20133;-76
2022/01/22 07:12:48;;;;;;;4.68;4.18;;;;;;;;;;4205725;34;20201;-75
2022/01/22 07:15:14;;;;;;;5.32;4.60;;;;;;;;;;4206075;34;20510;-69
2022/01/22 07:17:41;;;;;;;6.97;4.57;;;;;;;;;;4205868;34;20544;-69
2022/01/22 07:20:25;;;;;;;4.57;4.07;;;;;;;;;;4194759;34;20105;-73
2022/01/22 07:22:54;;;;;;;6.78;4.87;;;;;;;;;;4219617;34;20097;-72
2022/01/22 07:25:20;;;;;;;5.62;4.05;;;;;;;;;;4206463;34;20125;-80
2022/01/22 07:27:47;;;;;;;4.60;3.97;;;;;;;;;;4219320;34;20100;-77
2022/01/22 07:30:13;;;;;;;4.87;4.32;;;;;;;;;;4219515;34;20145;-75
2022/01/22 07:32:43;;;;;;;6.10;5.25;;;;;;;;;;4219801;34;20124;-75
2022/01/22 07:35:13;;;;;;;5.62;4.95;;;;;;;;;;4219566;34;20538;-77
2022/01/22 07:37:39;;;;;;;5.30;4.32;;;;;;;;;;4219497;34;20170;-73
2022/01/22 07:40:08;;;;;;;4.40;4.00;;;;;;;;;;4220043;34;20215;-74
2022/01/22 07:42:34;;;;;;;5.00;4.40;;;;;;;;;;4184002;34;20181;-80
2022/01/22 07:45:00;;;;;;;6.45;4.97;;;;;;;;;;4194937;34;20140;-70
2022/01/22 07:47:26;;;;;;;5.35;4.70;;;;;;;;;;4194463;34;20128;-74
2022/01/22 07:49:52;;;;;;;5.68;4.70;;;;;;;;;;4206728;34;20148;-69
2022/01/22 07:52:18;;;;;;;4.65;4.05;;;;;;;;;;4206182;34;20137;-72
2022/01/22 07:54:44;;;;;;;5.47;4.57;;;;;;;;;;4219418;34;20117;-70
2022/01/22 07:57:10;;;;;;;4.70;4.20;;;;;;;;;;4219275;34;20112;-71
2022/01/22 07:59:36;;;;;;;5.40;4.55;;;;;;;;;;4219086;34;20465;-72
2022/01/22 08:02:04;;;;;;;5.12;4.45;;;;;;;;;;4219054;34;20584;-74
2022/01/22 08:04:30;;;;;;;5.82;5.25;;;;;;;;;;4219215;34;20125;-72
2022/01/22 08:06:58;;;;;;;6.43;4.65;;;;;;;;;;4219197;33;20139;-73
2022/01/22 08:09:25;;;;;;;5.00;4.50;;;;;;;;;;4219248;34;20449;-72
2022/01/22 08:11:51;;;;;;;4.65;4.22;;;;;;;;;;4206195;34;20123;-72
2022/01/22 08:14:17;;;;;;;4.28;3.80;;;;;;;;;;4219021;34;20112;-73
2022/01/22 08:16:46;;;;;;;4.90;4.40;;;;;;;;;;4219271;34;20105;-71
2022/01/22 08:19:13;;;;;;;5.00;4.50;;;;;;;;;;4218970;34;20113;-69
2022/01/22 08:21:40;;;;;;;6.60;4.50;;;;;;;;;;4218846;33;20104;-71
2022/01/22 08:24:06;;;;;;;6.70;5.07;;;;;;;;;;4219024;34;20832;-69
2022/01/22 08:26:37;;;;;;;6.90;5.68;;;;;;;;;;4219119;34;20144;-71
2022/01/22 08:29:03;;;;;;;6.93;6.22;;;;;;;;;;4218974;34;20116;-69
2022/01/22 08:36:45;;;;;;;6.93;6.20;;;;;;;;;;4196336;34;20121;-69
2022/01/22 08:39:13;;;;;;;5.07;4.57;;;;;;;;;;4218904;34;20141;-68
2022/01/22 08:41:39;;;;;;;7.05;5.93;;;;;;;;;;4219028;34;20108;-69
2022/01/22 08:44:05;;;;;;;7.78;4.57;;;;;;;;;;4218905;34;20096;-70
2022/01/22 08:46:31;;;;;;;4.70;4.15;;;;;;;;;;4205886;34;20108;-69
2022/01/22 08:48:58;;;;;;;4.72;4.03;;;;;;;;;;4218916;34;20451;-70
2022/01/22 08:51:24;;;;;;;6.00;4.40;;;;;;;;;;4218867;34;20112;-70
2022/01/22 08:53:50;;;;;;;5.20;4.25;;;;;;;;;;4218832;34;20434;-69
2022/01/22 08:56:17;;;;;;;4.60;4.03;;;;;;;;;;4206121;34;20117;-69
2022/01/22 08:58:44;;;;;;;4.43;4.03;;;;;;;;;;4205742;34;20169;-69
2022/01/22 09:01:11;;;;;;;4.95;3.90;;;;;;;;;;4205946;34;20150;-72
2022/01/22 09:03:37;;;;;;;4.12;3.72;;;;;;;;;;4218730;34;20117;-73
2022/01/22 09:06:04;;;;;;;4.12;3.72;;;;;;;;;;4206039;34;20117;-73
2022/01/22 09:08:30;;;;;;;4.53;4.12;;;;;;;;;;4205806;34;20112;-72
2022/01/22 09:10:57;;;;;;;5.20;4.62;;;;;;;;;;4218649;34;20115;-69
2022/01/22 09:13:24;;;;;;;4.75;4.25;;;;;;;;;;4218639;34;20206;-70
2022/01/22 09:15:53;;;;;;;7.53;5.40;;;;;;;;;;4218686;34;20518;-72
2022/01/22 09:18:19;;;;;;;8.32;5.93;;;;;;;;;;4218592;34;20120;-70
2022/01/22 09:21:02;;;;;;;7.57;6.78;;;;;;;;;;4218453;33;20101;-70
2022/01/22 09:23:31;;;;;;;7.12;5.93;;;;;;;;;;4218786;34;20549;-71
2022/01/22 09:25:58;;;;;;;6.60;5.80;;;;;;;;;;4205687;34;20522;-71
2022/01/22 09:28:24;;;;;;;5.68;5.15;;;;;;;;;;4205850;34;20485;-72
2022/01/22 09:30:51;;;;;;;5.15;4.65;;;;;;;;;;4218606;34;20208;-71
2022/01/22 09:33:17;;;;;;;4.82;3.95;;;;;;;;;;4201866;34;20102;-68
2022/01/22 09:35:43;;;;;;;5.53;3.67;;;;;;;;;;4202997;34;20578;-71
2022/01/22 09:38:09;;;;;;;4.72;3.92;;;;;;;;;;4216611;34;20394;-73
2022/01/22 09:40:35;;;;;;;4.70;4.15;;;;;;;;;;4216843;34;20193;-75
2022/01/22 09:43:02;;;;;;;4.78;4.32;;;;;;;;;;4217998;34;20163;-75
2022/01/22 09:45:29;;;;;;;4.87;4.35;;;;;;;;;;4218103;34;20220;-72
2022/01/22 09:47:58;;;;;;;6.53;4.25;;;;;;;;;;4213523;34;20093;-71
2022/01/22 09:50:27;;;;;;;4.45;3.92;;;;;;;;;;4215616;34;20161;-70
2022/01/22 09:52:53;;;;;;;4.87;3.97;;;;;;;;;;4213251;34;20137;-72
2022/01/22 09:55:21;;;;;;;4.40;4.00;;;;;;;;;;4215671;34;20106;-71
2022/01/22 09:57:47;;;;;;;6.15;5.00;;;;;;;;;;4216188;34;20124;-73
2022/01/22 10:00:14;;;;;;;5.25;4.50;;;;;;;;;;4203667;34;20113;-71
2022/01/22 10:02:48;;;;;;;4.87;4.32;;;;;;;;;;4216330;34;20137;-71
2022/01/22 10:05:28;;;;;;;4.57;4.00;;;;;;;;;;4205310;34;20113;-71
2022/01/22 10:07:54;;;;;;;4.87;4.43;;;;;;;;;;4205111;34;20204;-71
2022/01/22 10:10:20;;;;;;;5.07;4.57;;;;;;;;;;4217502;34;20520;-71
2022/01/22 10:12:50;;;;;;;6.25;4.30;;;;;;;;;;4205402;34;20108;-69
2022/01/22 10:15:18;;;;;;;5.75;4.47;;;;;;;;;;4216984;34;20105;-71
2022/01/22 10:17:48;;;;;;;7.55;5.03;;;;;;;;;;4206569;34;20501;-68
2022/01/22 10:20:23;;;;;;;6.50;4.60;;;;;;;;;;4216711;33;20117;-72
2022/01/22 10:22:50;;;;;;;6.10;5.50;;;;;;;;;;4218083;34;20094;-75
2022/01/22 10:25:29;;;;;;;5.80;4.43;;;;;;;;;;4193318;34;20529;-86
2022/01/22 10:27:56;;;;;;;6.43;5.82;;;;;;;;;;4217209;34;20132;-72
2022/01/22 10:30:22;;;;;;;6.55;5.70;;;;;;;;;;4217471;34;20105;-81
2022/01/22 10:33:05;;;;;;;6.82;5.68;;;;;;;;;;4205327;34;20200;-71
2022/01/22 10:35:32;;;;;;;6.45;5.40;;;;;;;;;;4207201;34;20441;-69
2022/01/22 10:38:01;;;;;;;5.45;4.30;;;;;;;;;;4218512;34;20214;-71
2022/01/22 10:40:37;;;;;;;5.40;4.30;;;;;;;;;;4218450;34;20552;-69
2022/01/22 10:43:28;;;;;;;4.60;4.15;;;;;;;;;;4205017;34;20162;-71
2022/01/22 10:46:31;;;;;;;3.95;3.55;;;;;;;;;;4218393;34;20101;-71
2022/01/22 10:49:21;;;;;;;5.47;3.60;;;;;;;;;;4218020;34;20121;-70
2022/01/22 10:52:17;;;;;;;5.62;3.87;;;;;;;;;;4195217;34;20105;-78
2022/01/22 10:55:09;;;;;;;4.53;3.70;;;;;;;;;;4178063;33;20125;-74
2022/01/22 10:57:39;;;;;;;7.07;6.25;;;;;;;;;;4216367;33;20208;-73
2022/01/22 11:00:44;;;;;;;8.50;7.62;;;;;;;;;;4210175;34;20109;-73
2022/01/22 11:04:30;;;;;;;9.82;8.07;;;;;;;;;;4159555;34;20093;-77
2022/01/22 11:07:45;;;;;;;8.88;5.95;;;;;;;;;;4196590;34;20654;-74
2022/01/22 11:10:42;;;;;;;7.80;6.35;;;;;;;;;;4176690;34;20542;-72
2022/01/22 11:13:08;;;;;;;6.78;5.62;;;;;;;;;;4177155;34;20125;-69
2022/01/22 11:15:35;;;;;;;7.55;6.75;;;;;;;;;;4174225;34;20122;-72
2022/01/22 11:18:01;;;;;;;6.35;5.35;;;;;;;;;;4175880;34;20113;-73
2022/01/22 11:20:29;;;;;;;8.35;5.10;;;;;;;;;;4187340;34;20216;-71
2022/01/22 11:22:56;;;;;;;7.53;6.07;;;;;;;;;;4178110;34;20113;-69
2022/01/22 11:25:23;;;;;;;7.60;5.93;;;;;;;;;;4178074;34;20475;-70
2022/01/22 11:27:49;;;;;;;7.55;5.35;;;;;;;;;;4189436;34;20110;-70
2022/01/22 11:30:17;;;;;;;6.85;6.10;;;;;;;;;;4178282;34;20090;-70
2022/01/22 11:32:49;;;;;;;5.00;4.50;;;;;;;;;;4188256;34;20261;-69
2022/01/22 11:35:21;;;;;;;5.78;4.37;;;;;;;;;;4201818;34;20451;-68
2022/01/22 11:38:00;;;;;;;4.55;4.00;;;;;;;;;;4204619;34;20196;-69
2022/01/22 11:40:27;;;;;;;5.60;4.60;;;;;;;;;;4205077;34;20197;-69
2022/01/22 11:43:06;;;;;;;6.05;4.75;;;;;;;;;;4207604;34;20098;-66
2022/01/22 11:45:43;;;;;;;5.53;4.72;;;;;;;;;;4193620;34;20523;-72
2022/01/22 11:48:15;;;;;;;6.12;4.80;;;;;;;;;;4181488;34;20113;-70
2022/01/22 11:50:44;;;;;;;6.30;4.87;;;;;;;;;;4192311;34;20392;-65
2022/01/22 11:53:37;;;;;;;5.53;4.62;;;;;;;;;;4205384;34;20494;-66
2022/01/22 11:56:28;;;;;;;5.28;4.55;;;;;;;;;;4193322;34;20188;-66
2022/01/22 11:58:58;;;;;;;5.60;4.93;;;;;;;;;;4193220;34;20109;-66
2022/01/22 12:02:02;;;;;;;5.00;4.55;;;;;;;;;;4205415;34;20233;-68
2022/01/22 12:04:45;;;;;;;5.82;4.30;;;;;;;;;;4205137;33;20108;-66
2022/01/22 12:07:14;;;;;;;4.87;4.30;;;;;;;;;;4194962;34;20102;-67
2022/01/22 12:15:06;;;;;;;4.80;4.35;;;;;;;;;;4219282;34;20113;-66
2022/01/22 12:17:51;;;;;;;5.35;4.57;;;;;;;;;;4219031;34;20533;-66
2022/01/22 12:20:41;;;;;;;4.78;4.32;;;;;;;;;;4219389;34;20336;-67
2022/01/22 12:23:12;;;;;;;4.97;4.43;;;;;;;;;;4205937;34;20128;-69
2022/01/22 12:25:38;;;;;;;8.80;7.45;;;;;;;;;;4219591;34;20110;-67
2022/01/22 12:28:11;;;;;;;12.13;8.82;;;;;;;;;;4218882;34;20144;-65
2022/01/22 12:30:39;;;;;;;8.93;7.87;;;;;;;;;;4219411;34;20697;-68
2022/01/22 12:33:14;;;;;;;7.35;6.18;;;;;;;;;;4193933;34;20145;-67
2022/01/22 12:35:42;;;;;;;6.45;5.50;;;;;;;;;;4206381;34;20547;-66
2022/01/22 12:38:29;;;;;;;9.43;7.65;;;;;;;;;;4218997;34;20124;-68
2022/01/22 12:41:14;;;;;;;9.68;6.50;;;;;;;;;;4207185;34;20462;-67
2022/01/22 12:43:43;;;;;;;6.65;5.35;;;;;;;;;;4218718;34;20554;-67
2022/01/22 12:46:09;;;;;;;5.68;5.12;;;;;;;;;;4218910;34;20612;-68
2022/01/22 12:48:38;;;;;;;5.28;4.55;;;;;;;;;;4217483;34;20738;-67
2022/01/22 12:51:09;;;;;;;5.85;4.65;;;;;;;;;;4206053;34;20213;-71
2022/01/22 12:53:36;;;;;;;5.65;5.07;;;;;;;;;;4205892;34;20197;-70
2022/01/22 12:56:48;;;;;;;4.72;4.15;;;;;;;;;;4217469;34;20557;-71
2022/01/22 12:58:49;;;;;;;4.95;4.40;;;;;;;;;;4205517;34;20086;-69
2022/01/22 13:01:21;;;;;;;6.70;5.72;;;;;;;;;;4218513;34;20085;-70
2022/01/22 13:03:50;;;;;;;6.15;5.55;;;;;;;;;;4215944;33;20200;-68
2022/01/22 13:06:18;;;;;;;6.15;5.00;;;;;;;;;;4205672;34;20116;-69
2022/01/22 13:08:44;;;;;;;7.43;5.45;;;;;;;;;;4193104;34;20180;-69
2022/01/22 13:11:13;;;;;;;6.53;5.82;;;;;;;;;;4205844;34;20168;-68
2022/01/22 13:13:40;;;;;;;6.53;5.82;;;;;;;;;;4218532;34;20105;-68
2022/01/22 13:16:09;;;;;;;8.15;7.35;;;;;;;;;;4218704;34;20082;-66
2022/01/22 13:18:46;;;;;;;6.20;4.70;;;;;;;;;;4205486;34;20196;-68
2022/01/22 13:21:14;;;;;;;5.72;4.78;;;;;;;;;;4205531;34;20192;-67
2022/01/22 13:23:40;;;;;;;5.10;4.60;;;;;;;;;;4218341;34;20110;-68
2022/01/22 13:26:07;;;;;;;16.12;14.43;;;;;;;;;;4206139;34;20426;-67
2022/01/22 13:28:35;;;;;;;9.40;8.02;;;;;;;;;;4218269;33;20116;-67
2022/01/22 13:31:16;;;;;;;18.27;13.82;;;;;;;;;;4205510;34;20449;-66
2022/01/22 13:34:12;;;;;;;28.62;21.50;;;;;;;;;;4205421;34;20204;-67
2022/01/22 13:37:04;;;;;;;14.95;11.57;;;;;;;;;;4218517;34;20108;-67
2022/01/22 13:40:29;;;;;;;19.02;15.48;;;;;;;;;;4218062;34;20117;-68
2022/01/22 13:45:25;;;;;;;9.18;7.03;;;;;;;;;;4217592;33;20133;-68
2022/01/22 13:47:55;;;;;;;13.18;9.70;;;;;;;;;;4218592;34;20093;-68
2022/01/22 13:50:22;;;;;;;9.60;6.53;;;;;;;;;;4218263;34;20207;-68
2022/01/22 13:52:49;;;;;;;7.65;6.18;;;;;;;;;;4218362;34;20125;-69
2022/01/22 13:55:16;;;;;;;5.97;5.37;;;;;;;;;;4218363;34;20113;-67
2022/01/22 13:57:44;;;;;;;5.93;5.32;;;;;;;;;;4205322;34;20473;-66
2022/01/22 14:00:16;;;;;;;6.97;4.50;;;;;;;;;;4205577;34;20119;-65
2022/01/22 14:05:32;;;;;;;7.65;6.82;;;;;;;;;;4207032;34;20257;-68
2022/01/22 14:08:05;;;;;;;5.32;4.75;;;;;;;;;;4216879;34;20097;-67
2022/01/22 14:10:32;;;;;;;7.28;6.03;;;;;;;;;;4218055;33;20097;-68
2022/01/22 14:13:10;;;;;;;8.25;5.95;;;;;;;;;;4217999;34;20207;-68
2022/01/22 14:15:43;;;;;;;7.78;5.90;;;;;;;;;;4218326;33;20615;-68
2022/01/22 14:18:22;;;;;;;7.03;5.60;;;;;;;;;;4218002;34;20109;-69
2022/01/22 14:21:08;;;;;;;6.35;5.62;;;;;;;;;;4216336;34;20125;-67
2022/01/22 14:23:35;;;;;;;5.70;4.60;;;;;;;;;;4215865;34;20133;-67
2022/01/22 14:26:34;;;;;;;6.70;4.95;;;;;;;;;;4215932;34;20116;-67
2022/01/22 14:29:04;;;;;;;6.30;5.03;;;;;;;;;;4215415;34;20194;-67
2022/01/22 14:31:44;;;;;;;4.87;3.90;;;;;;;;;;4215965;34;20615;-67
2022/01/22 14:34:12;;;;;;;5.78;4.20;;;;;;;;;;4216451;34;20746;-66
2022/01/22 14:36:49;;;;;;;6.12;4.15;;;;;;;;;;4217954;34;20100;-67
2022/01/22 14:44:42;;;;;;;5.80;4.28;;;;;;;;;;4217841;34;20097;-67
2022/01/22 14:47:16;;;;;;;5.10;4.32;;;;;;;;;;4205095;34;20129;-68
2022/01/22 14:49:44;;;;;;;5.12;4.05;;;;;;;;;;4217712;34;20443;-73
2022/01/22 14:52:12;;;;;;;4.50;4.03;;;;;;;;;;4205390;34;20128;-74
2022/01/22 14:54:44;;;;;;;4.25;3.33;;;;;;;;;;4217824;34;20449;-72
2022/01/22 14:57:11;;;;;;;4.65;3.85;;;;;;;;;;4195387;34;20530;-70
2022/01/22 14:59:39;;;;;;;4.57;3.83;;;;;;;;;;4207169;34;20105;-73
2022/01/22 15:02:06;;;;;;;7.45;6.30;;;;;;;;;;4219976;34;20524;-71
2022/01/22 15:04:32;;;;;;;5.70;4.35;;;;;;;;;;4219652;34;20105;-72
2022/01/22 15:07:01;;;;;;;4.78;4.00;;;;;;;;;;4218302;34;20116;-71
2022/01/22 15:09:29;;;;;;;4.00;3.60;;;;;;;;;;4213079;34;20114;-69
2022/01/22 15:11:55;;;;;;;5.40;3.55;;;;;;;;;;4197052;34;20131;-69
2022/01/22 15:14:23;;;;;;;5.15;3.58;;;;;;;;;;4192732;34;20110;-72
2022/01/22 15:17:03;;;;;;;5.80;3.20;;;;;;;;;;4196491;34;20125;-70
2022/01/22 15:19:29;;;;;;;4.85;3.10;;;;;;;;;;4219623;34;20609;-65
2022/01/22 15:21:55;;;;;;;6.10;3.78;;;;;;;;;;4219457;34;20152;-65
2022/01/22 15:24:21;;;;;;;4.37;3.53;;;;;;;;;;4206798;34;20125;-67
2022/01/22 15:26:47;;;;;;;3.65;3.10;;;;;;;;;;4219621;34;20216;-68
2022/01/22 15:29:17;;;;;;;4.37;3.28;;;;;;;;;;4219526;34;20125;-68
2022/01/22 15:37:05;;;;;;;4.55;3.40;;;;;;;;;;4219760;34;20109;-67
2022/01/22 15:39:32;;;;;;;24.33;3.62;;;;;;;;;;4219970;34;20104;-68
2022/01/22 15:41:58;;;;;;;4.05;3.50;;;;;;;;;;4219936;34;20116;-70
2022/01/22 15:44:25;;;;;;;9.02;5.78;;;;;;;;;;4219808;34;20098;-71
2022/01/22 15:46:51;;;;;;;356.65;175.75;;;;;;;;;;4219773;34;20197;-71
2022/01/22 15:49:20;;;;;;;5.22;3.87;;;;;;;;;;4221437;34;20322;-70
2022/01/22 15:51:49;;;;;;;4.97;3.55;;;;;;;;;;4226371;34;20201;-68
2022/01/22 15:54:15;;;;;;;4.53;3.60;;;;;;;;;;4219612;34;20510;-66
2022/01/22 15:56:44;;;;;;;4.62;3.28;;;;;;;;;;4219587;34;20545;-64
2022/01/22 15:59:11;;;;;;;5.97;3.37;;;;;;;;;;4219124;33;20209;-66
2022/01/22 16:01:39;;;;;;;3.97;3.37;;;;;;;;;;4219357;34;20433;-68
2022/01/22 16:04:06;;;;;;;4.12;3.55;;;;;;;;;;4219248;34;20136;-68
2022/01/22 16:06:57;;;;;;;8.18;4.15;;;;;;;;;;4218720;34;20506;-68
2022/01/22 16:09:25;;;;;;;4.55;4.05;;;;;;;;;;4208911;34;20078;-64
2022/01/22 16:11:51;;;;;;;6.50;4.20;;;;;;;;;;4219276;34;20129;-67
2022/01/22 16:14:18;;;;;;;5.15;4.32;;;;;;;;;;4218898;34;20120;-68
2022/01/22 16:16:46;;;;;;;4.93;3.40;;;;;;;;;;4219372;34;20193;-64
2022/01/22 16:19:14;;;;;;;3.92;3.28;;;;;;;;;;4206275;34;20117;-65
2022/01/22 16:21:44;;;;;;;5.25;4.03;;;;;;;;;;4194714;34;20121;-66
2022/01/22 16:24:11;;;;;;;4.50;3.72;;;;;;;;;;4218848;34;20461;-68
2022/01/22 16:26:38;;;;;;;4.97;3.78;;;;;;;;;;4219099;34;20503;-66
2022/01/22 16:29:04;;;;;;;4.22;3.40;;;;;;;;;;4218914;34;20205;-68
2022/01/22 16:31:34;;;;;;;4.35;3.62;;;;;;;;;;4219063;34;20427;-69
2022/01/22 16:34:05;;;;;;;5.15;3.45;;;;;;;;;;4218777;34;20537;-68
2022/01/22 16:36:32;;;;;;;5.30;3.67;;;;;;;;;;4206163;34;20093;-67
2022/01/22 16:38:58;;;;;;;3.65;3.25;;;;;;;;;;4218887;34;20101;-70
2022/01/22 16:41:27;;;;;;;5.20;4.00;;;;;;;;;;4218855;34;20120;-70
2022/01/22 16:43:58;;;;;;;6.20;3.78;;;;;;;;;;4218812;33;20105;-67
2022/01/22 16:46:47;;;;;;;6.68;4.68;;;;;;;;;;4219069;34;20129;-67
2022/01/22 16:57:20;;;;;;;5.68;4.40;;;;;;;;;;4218948;34;20111;-66
2022/01/22 16:59:52;;;;;;;5.05;4.07;;;;;;;;;;4218766;34;20517;-66
2022/01/22 17:02:20;;;;;;;4.55;3.72;;;;;;;;;;4218810;34;20124;-66
2022/01/22 17:04:52;;;;;;;5.30;3.70;;;;;;;;;;4218646;34;20128;-65
2022/01/22 17:07:29;;;;;;;4.62;3.80;;;;;;;;;;4205839;34;20094;-67
2022/01/22 17:15:06;;;;;;;5.03;3.60;;;;;;;;;;4218602;33;20188;-64
2022/01/22 17:17:33;;;;;;;5.07;3.92;;;;;;;;;;4218610;33;20521;-67
2022/01/22 17:19:59;;;;;;;6.28;4.62;;;;;;;;;;4218406;33;20511;-66
2022/01/22 17:22:25;;;;;;;5.93;4.10;;;;;;;;;;4218725;34;20121;-66
2022/01/22 17:24:51;;;;;;;5.75;4.12;;;;;;;;;;4218536;34;20112;-68
2022/01/22 17:27:21;;;;;;;5.18;4.30;;;;;;;;;;4218809;34;20089;-65
2022/01/22 17:29:51;;;;;;;5.00;4.35;;;;;;;;;;4218360;34;20133;-64
2022/01/22 17:32:17;;;;;;;6.40;4.05;;;;;;;;;;4205551;34;20449;-66
2022/01/22 17:34:44;;;;;;;6.10;4.78;;;;;;;;;;4218614;34;20115;-64
2022/01/22 17:37:10;;;;;;;5.82;4.00;;;;;;;;;;4218739;34;20564;-66
2022/01/22 17:39:38;;;;;;;4.90;4.10;;;;;;;;;;4205679;34;20192;-65
2022/01/22 17:42:07;;;;;;;6.35;3.87;;;;;;;;;;4205532;34;20214;-66